Time;durP1;ratioP1;P1;durP2;ratioP2;P2;SDS_P1;SDS_P2;PMS_P1;PMS_P2;Temp;Humidity;BMP_temperature;BMP_pressure;BME280_temperature;BME280_humidity;BME280_pressure;Samples;Min_cycle;Max_cycle;Signal;HPM_P1;HPM_P2
2021/01/31 00:00:13;;;;;;;43.92;26.02;;;-1.80;99.90;;;;;;1824402;78;21228;-78
2021/01/31 00:02:41;;;;;;;43.38;25.00;;;-1.70;99.90;;;;;;1823508;77;21130;-78
2021/01/31 00:05:10;;;;;;;42.75;24.18;;;-1.80;99.90;;;;;;1825020;77;21158;-78
2021/01/31 00:07:37;;;;;;;45.08;26.25;;;-1.70;99.90;;;;;;1828973;78;21468;-77
2021/01/31 00:10:06;;;;;;;48.23;25.65;;;-1.70;99.90;;;;;;1819458;78;21502;-78
2021/01/31 00:12:34;;;;;;;47.23;26.55;;;-1.70;99.90;;;;;;1823814;78;21076;-78
2021/01/31 00:15:02;;;;;;;49.20;26.52;;;-1.80;99.90;;;;;;1827415;78;22301;-77
2021/01/31 00:17:29;;;;;;;45.00;24.40;;;-2.00;99.90;;;;;;1823710;76;21652;-77
2021/01/31 00:19:57;;;;;;;44.93;25.05;;;-2.10;99.90;;;;;;1824538;78;21168;-77
2021/01/31 00:22:24;;;;;;;41.85;24.05;;;-2.30;99.90;;;;;;1826221;78;21185;-77
2021/01/31 00:24:54;;;;;;;41.05;22.40;;;-2.30;99.90;;;;;;1824747;76;21084;-77
2021/01/31 00:27:23;;;;;;;45.05;23.45;;;-2.20;99.90;;;;;;1825362;77;21182;-77
2021/01/31 00:29:54;;;;;;;41.95;24.65;;;-2.20;99.90;;;;;;1821432;78;21059;-78
2021/01/31 00:32:25;;;;;;;33.05;17.48;;;-2.30;99.90;;;;;;1826725;78;21649;-77
2021/01/31 00:34:54;;;;;;;46.73;24.87;;;-2.30;99.90;;;;;;1824995;78;21228;-78
2021/01/31 00:37:23;;;;;;;48.38;26.17;;;-2.20;99.90;;;;;;1824936;77;21252;-79
2021/01/31 00:39:52;;;;;;;44.60;25.92;;;-2.20;99.90;;;;;;1822862;78;21088;-78
2021/01/31 00:42:21;;;;;;;47.33;25.45;;;-2.10;99.90;;;;;;1827849;76;21177;-78
2021/01/31 00:44:53;;;;;;;46.20;25.00;;;-2.10;99.90;;;;;;1827794;76;21065;-78
2021/01/31 00:47:22;;;;;;;45.15;25.72;;;-2.20;99.90;;;;;;1825676;76;21099;-78
2021/01/31 00:49:50;;;;;;;42.95;24.35;;;-2.20;99.90;;;;;;1826625;78;21052;-78
2021/01/31 00:52:22;;;;;;;43.85;24.95;;;-2.30;99.90;;;;;;1830279;76;21126;-78
2021/01/31 00:54:50;;;;;;;45.43;24.77;;;-2.20;99.90;;;;;;1827146;78;21592;-77
2021/01/31 00:57:18;;;;;;;43.73;25.37;;;-2.20;99.90;;;;;;1820562;78;21146;-78
2021/01/31 00:59:46;;;;;;;44.67;24.67;;;-2.30;99.90;;;;;;1823224;78;21108;-77
2021/01/31 01:02:16;;;;;;;45.98;24.77;;;-2.40;99.90;;;;;;1821238;77;21169;-77
2021/01/31 01:04:45;;;;;;;46.00;25.10;;;-2.40;99.90;;;;;;1825403;78;21119;-77
2021/01/31 01:07:13;;;;;;;44.13;23.87;;;-2.50;99.90;;;;;;1824853;78;21146;-77
2021/01/31 01:09:41;;;;;;;45.55;25.12;;;-2.50;99.90;;;;;;1827908;78;21036;-79
2021/01/31 01:12:09;;;;;;;43.87;25.27;;;-2.60;99.90;;;;;;1828765;76;21115;-79
2021/01/31 01:14:36;;;;;;;46.65;25.55;;;-2.60;99.90;;;;;;1826172;77;21100;-78
2021/01/31 01:17:05;;;;;;;42.73;24.75;;;-2.60;99.90;;;;;;1827716;76;21377;-77
2021/01/31 01:19:33;;;;;;;48.42;24.57;;;-2.60;99.90;;;;;;1825823;78;21147;-79
2021/01/31 01:22:00;;;;;;;47.30;26.05;;;-2.60;99.90;;;;;;1830914;77;21232;-78
2021/01/31 01:24:28;;;;;;;45.75;25.27;;;-2.60;99.90;;;;;;1824348;78;21052;-78
2021/01/31 01:26:57;;;;;;;43.63;24.92;;;-2.50;99.90;;;;;;1825861;78;21088;-78
2021/01/31 01:29:25;;;;;;;40.78;23.62;;;-2.40;99.90;;;;;;1826050;77;21162;-78
2021/01/31 01:31:52;;;;;;;39.40;23.12;;;-2.50;99.90;;;;;;1826645;78;21213;-76
2021/01/31 01:34:20;;;;;;;37.03;22.58;;;-2.70;99.90;;;;;;1826004;78;21131;-77
2021/01/31 01:36:47;;;;;;;40.30;23.62;;;-2.70;99.90;;;;;;1828090;78;21045;-78
2021/01/31 01:39:15;;;;;;;43.63;25.23;;;-2.70;99.90;;;;;;1821218;78;21621;-78
2021/01/31 01:41:45;;;;;;;41.23;23.92;;;-2.60;99.90;;;;;;1819961;76;21506;-77
2021/01/31 01:44:13;;;;;;;45.23;24.23;;;-2.50;99.90;;;;;;1828983;78;21151;-77
2021/01/31 01:46:46;;;;;;;41.33;23.52;;;-2.50;99.90;;;;;;1823542;76;21131;-78
2021/01/31 01:49:19;;;;;;;45.63;24.50;;;-2.70;99.90;;;;;;1869794;72;21543;-76
2021/01/31 01:51:50;;;;;;;42.23;24.15;;;-2.70;99.90;;;;;;1923030;73;21202;-77
2021/01/31 01:54:23;;;;;;;47.90;25.70;;;-2.70;99.90;;;;;;1922802;73;21081;-77
2021/01/31 01:56:54;;;;;;;41.18;24.32;;;-2.70;99.90;;;;;;1936324;72;21129;-77
2021/01/31 01:59:22;;;;;;;39.08;22.58;;;-2.60;99.90;;;;;;1932323;72;21138;-76
2021/01/31 02:01:58;;;;;;;44.70;25.52;;;-2.70;99.90;;;;;;1931826;73;21180;-76
2021/01/31 02:04:25;;;;;;;48.30;24.45;;;-2.70;99.90;;;;;;1915335;73;21126;-76
2021/01/31 02:06:53;;;;;;;39.90;23.80;;;-2.70;99.90;;;;;;1935601;72;21624;-76
2021/01/31 02:09:20;;;;;;;42.03;23.18;;;-2.70;99.90;;;;;;1934190;72;21166;-75
2021/01/31 02:11:49;;;;;;;43.10;23.52;;;-2.70;99.90;;;;;;1938184;72;21082;-76
2021/01/31 02:14:17;;;;;;;38.85;23.38;;;-2.80;99.90;;;;;;1936230;72;21518;-77
2021/01/31 02:17:12;;;;;;;42.58;22.90;;;-2.70;99.90;;;;;;1939613;72;21048;-76
2021/01/31 02:20:09;;;;;;;38.67;22.95;;;-2.70;99.90;;;;;;1934278;72;21067;-76
2021/01/31 02:23:08;;;;;;;42.85;23.87;;;-2.70;99.90;;;;;;1934030;73;21091;-76
2021/01/31 02:25:51;;;;;;;53.85;26.65;;;-2.80;99.90;;;;;;1933426;72;21325;-76
2021/01/31 02:28:38;;;;;;;50.95;26.48;;;-2.90;99.90;;;;;;1934586;73;21285;-76
2021/01/31 02:31:39;;;;;;;47.83;24.30;;;-2.90;99.90;;;;;;1936277;73;21228;-78
2021/01/31 02:34:09;;;;;;;43.25;22.62;;;-2.90;99.90;;;;;;1933231;73;21075;-78
2021/01/31 02:36:46;;;;;;;39.42;21.48;;;-3.00;99.90;;;;;;1935406;73;21123;-76
2021/01/31 02:39:27;;;;;;;38.33;21.62;;;-3.00;99.90;;;;;;1931999;73;21111;-76
2021/01/31 02:42:13;;;;;;;37.60;22.05;;;-3.00;99.90;;;;;;1937739;73;21161;-76
2021/01/31 02:44:43;;;;;;;38.35;20.23;;;-3.00;99.90;;;;;;1934379;73;21137;-76
2021/01/31 02:47:16;;;;;;;40.92;21.97;;;-3.10;99.90;;;;;;1937266;72;21231;-76
2021/01/31 02:49:52;;;;;;;42.70;21.00;;;-3.20;99.90;;;;;;1939332;72;21087;-76
2021/01/31 02:52:23;;;;;;;37.05;20.92;;;-3.20;99.90;;;;;;1928826;73;21232;-76
2021/01/31 02:54:54;;;;;;;37.75;20.02;;;-3.20;99.90;;;;;;1935014;72;21390;-76
2021/01/31 02:57:27;;;;;;;34.63;20.25;;;-3.40;99.90;;;;;;1935377;72;21064;-76
2021/01/31 02:59:57;;;;;;;36.50;21.05;;;-3.40;99.90;;;;;;1933389;72;21047;-75
2021/01/31 03:02:28;;;;;;;37.00;20.75;;;-3.50;99.90;;;;;;1931235;73;21039;-76
2021/01/31 03:05:01;;;;;;;35.65;21.42;;;-3.60;99.90;;;;;;1937560;73;21107;-75
2021/01/31 03:07:32;;;;;;;36.03;20.85;;;-3.60;99.90;;;;;;1933894;73;21596;-77
2021/01/31 03:10:02;;;;;;;36.05;20.72;;;-3.60;99.90;;;;;;1931651;73;21087;-75
2021/01/31 03:12:33;;;;;;;37.58;21.17;;;-3.60;99.90;;;;;;1934062;73;21102;-75
2021/01/31 03:15:09;;;;;;;37.38;21.23;;;-3.50;99.90;;;;;;1934983;73;21134;-75
2021/01/31 03:17:40;;;;;;;41.80;23.22;;;-3.60;99.90;;;;;;1935984;73;21235;-75
2021/01/31 03:20:10;;;;;;;41.88;23.25;;;-3.70;99.90;;;;;;1934947;73;21091;-76
2021/01/31 03:22:50;;;;;;;41.63;22.77;;;-3.70;99.90;;;;;;1936754;73;21075;-76
2021/01/31 03:25:20;;;;;;;36.53;21.25;;;-3.70;99.90;;;;;;1932084;73;21572;-76
2021/01/31 03:27:48;;;;;;;35.48;21.25;;;-3.70;99.90;;;;;;1936843;73;21208;-76
2021/01/31 03:30:17;;;;;;;34.78;20.52;;;-3.80;99.90;;;;;;1940688;73;21067;-75
2021/01/31 03:33:04;;;;;;;39.23;21.23;;;-3.80;99.90;;;;;;1931236;73;21526;-75
2021/01/31 03:35:47;;;;;;;39.08;20.90;;;-3.70;99.90;;;;;;1931736;73;21123;-77
2021/01/31 03:38:23;;;;;;;35.30;20.85;;;-3.70;99.90;;;;;;1936527;73;21153;-77
2021/01/31 03:40:53;;;;;;;34.30;20.23;;;-3.90;99.90;;;;;;1934926;73;21091;-77
2021/01/31 03:43:21;;;;;;;34.10;20.27;;;-3.90;99.90;;;;;;1932206;73;21474;-77
2021/01/31 03:46:08;;;;;;;30.48;18.62;;;-3.80;99.90;;;;;;1936965;72;21556;-77
2021/01/31 03:48:39;;;;;;;33.67;19.15;;;-3.60;99.90;;;;;;1931581;73;21220;-76
2021/01/31 03:51:07;;;;;;;29.00;18.37;;;-3.60;99.90;;;;;;1927296;73;21196;-75
2021/01/31 03:53:35;;;;;;;31.35;19.48;;;-3.60;99.90;;;;;;1937886;72;21184;-75
2021/01/31 03:56:04;;;;;;;32.85;20.00;;;-3.60;99.90;;;;;;1935166;73;21098;-75
2021/01/31 03:58:32;;;;;;;31.68;18.45;;;-3.50;99.90;;;;;;1941221;73;21385;-75
2021/01/31 04:01:03;;;;;;;33.75;19.60;;;-3.40;99.90;;;;;;1933996;73;21063;-76
2021/01/31 04:03:39;;;;;;;31.10;18.45;;;-3.30;99.90;;;;;;1938521;73;21099;-77
2021/01/31 04:06:12;;;;;;;29.23;18.17;;;-3.30;99.90;;;;;;1934658;73;21103;-77
2021/01/31 04:08:42;;;;;;;29.32;16.65;;;-3.30;99.90;;;;;;1934716;73;21114;-76
2021/01/31 04:11:09;;;;;;;28.20;17.45;;;-3.40;99.90;;;;;;1933281;72;21060;-76
2021/01/31 04:13:37;;;;;;;30.20;17.87;;;-3.40;99.90;;;;;;1934882;73;21269;-76
2021/01/31 04:16:07;;;;;;;35.65;21.42;;;-3.40;99.90;;;;;;1936470;73;21095;-76
2021/01/31 04:18:34;;;;;;;31.73;19.80;;;-3.70;99.90;;;;;;1934443;73;21235;-75
2021/01/31 04:21:02;;;;;;;34.78;21.50;;;-3.80;99.90;;;;;;1935923;73;21130;-78
2021/01/31 04:23:29;;;;;;;36.88;21.05;;;-3.60;99.90;;;;;;1938011;73;21091;-78
2021/01/31 04:25:57;;;;;;;34.30;20.30;;;-3.50;99.90;;;;;;1936331;73;21095;-76
2021/01/31 04:28:26;;;;;;;36.05;20.52;;;-3.50;99.90;;;;;;1936629;73;21188;-76
2021/01/31 04:30:57;;;;;;;34.55;21.23;;;-3.60;99.90;;;;;;1933550;73;21204;-76
2021/01/31 04:33:25;;;;;;;35.33;20.77;;;-3.50;99.90;;;;;;1936820;73;21120;-76
2021/01/31 04:35:54;;;;;;;33.23;20.02;;;-3.50;99.90;;;;;;1932798;73;21115;-76
2021/01/31 04:38:22;;;;;;;34.75;20.55;;;-3.50;99.90;;;;;;1936203;73;21108;-78
2021/01/31 04:40:50;;;;;;;39.90;22.02;;;-3.40;99.90;;;;;;1934750;73;21122;-78
2021/01/31 04:43:19;;;;;;;37.17;21.10;;;-3.70;99.90;;;;;;1934908;73;21111;-76
2021/01/31 04:45:48;;;;;;;38.63;21.42;;;-3.50;99.90;;;;;;1938523;73;21598;-76
2021/01/31 04:48:25;;;;;;;38.02;21.17;;;-3.30;99.90;;;;;;1938927;73;21565;-76
2021/01/31 04:51:04;;;;;;;38.65;22.67;;;-3.30;99.90;;;;;;1937964;73;22194;-76
2021/01/31 04:53:41;;;;;;;41.45;22.20;;;-3.10;99.90;;;;;;1931487;73;21146;-76
2021/01/31 04:56:17;;;;;;;50.98;24.70;;;-3.10;99.90;;;;;;1933177;73;21133;-75
2021/01/31 04:58:48;;;;;;;43.73;22.98;;;-3.10;99.90;;;;;;1935692;73;21675;-76
2021/01/31 05:01:30;;;;;;;43.77;23.50;;;-3.00;99.90;;;;;;1931947;73;21229;-77
2021/01/31 05:04:00;;;;;;;41.23;22.90;;;-2.90;99.90;;;;;;1935198;73;21541;-76
2021/01/31 05:06:40;;;;;;;44.88;24.45;;;-2.90;99.90;;;;;;1937175;73;21322;-75
2021/01/31 05:09:11;;;;;;;42.03;22.58;;;-2.90;99.90;;;;;;1932683;73;21130;-76
2021/01/31 05:11:41;;;;;;;47.70;25.37;;;-3.30;99.90;;;;;;1935623;72;21036;-76
2021/01/31 05:14:12;;;;;;;46.53;25.40;;;-3.20;99.90;;;;;;1930345;73;21180;-76
2021/01/31 05:16:40;;;;;;;42.33;23.98;;;-3.20;99.90;;;;;;1932809;73;21181;-76
2021/01/31 05:19:13;;;;;;;43.33;24.23;;;-3.00;99.90;;;;;;1934361;73;21221;-76
2021/01/31 05:21:41;;;;;;;44.27;24.43;;;-3.00;99.90;;;;;;1934409;73;21208;-78
2021/01/31 05:24:14;;;;;;;43.33;23.00;;;-2.80;99.90;;;;;;1934791;73;21106;-78
2021/01/31 05:26:44;;;;;;;41.50;22.15;;;-2.80;99.90;;;;;;1932438;73;21193;-77
2021/01/31 05:29:15;;;;;;;43.95;22.77;;;-2.90;99.90;;;;;;1933510;73;21298;-77
2021/01/31 05:31:54;;;;;;;44.53;22.32;;;-2.90;99.90;;;;;;1934056;73;21119;-77
2021/01/31 05:34:45;;;;;;;44.58;22.87;;;-2.90;99.90;;;;;;1936171;73;21083;-77
2021/01/31 05:37:18;;;;;;;41.23;21.23;;;-2.80;99.90;;;;;;1933583;73;21106;-77
2021/01/31 05:39:49;;;;;;;40.60;22.13;;;-2.90;99.90;;;;;;1933949;73;21162;-77
2021/01/31 05:42:19;;;;;;;39.70;21.65;;;-2.80;99.90;;;;;;1928370;73;21700;-77
2021/01/31 05:44:50;;;;;;;49.58;22.17;;;-2.80;99.90;;;;;;1934882;73;21098;-77
2021/01/31 05:47:26;;;;;;;43.55;22.02;;;-2.70;99.90;;;;;;1929257;73;21164;-77
2021/01/31 05:49:54;;;;;;;35.92;20.72;;;-2.80;99.90;;;;;;1935505;73;21081;-77
2021/01/31 05:52:27;;;;;;;39.78;21.52;;;-2.90;99.90;;;;;;1930649;73;21173;-77
2021/01/31 05:54:55;;;;;;;41.05;21.75;;;-2.90;99.90;;;;;;1932912;72;21025;-77
2021/01/31 05:57:34;;;;;;;39.88;21.50;;;-2.90;99.90;;;;;;1934498;73;21122;-78
2021/01/31 06:00:04;;;;;;;37.98;21.17;;;-3.00;99.90;;;;;;1933980;73;21127;-76
2021/01/31 06:02:33;;;;;;;36.77;19.15;;;-2.90;99.90;;;;;;1915580;73;21659;-76
2021/01/31 06:05:15;;;;;;;34.78;19.32;;;-2.90;99.90;;;;;;1938785;73;21107;-76
2021/01/31 06:07:44;;;;;;;42.73;20.10;;;-2.70;99.90;;;;;;1936038;73;21166;-76
2021/01/31 06:10:18;;;;;;;33.92;19.32;;;-2.70;99.90;;;;;;1933008;72;21083;-76
2021/01/31 06:12:50;;;;;;;31.68;18.52;;;-2.70;99.90;;;;;;1936172;73;21102;-78
2021/01/31 06:15:24;;;;;;;;;;;-2.70;99.90;;;;;;1934744;73;21139;-78
2021/01/31 06:17:58;;;;;;;30.25;16.67;;;-2.70;99.90;;;;;;1941148;73;20174;-77
2021/01/31 06:20:34;;;;;;;32.67;18.00;;;-2.70;99.90;;;;;;1934438;73;21576;-77
2021/01/31 06:23:04;;;;;;;29.15;17.12;;;-2.70;99.90;;;;;;1937614;73;21177;-77
2021/01/31 06:25:34;;;;;;;29.30;17.95;;;-2.70;99.90;;;;;;1935998;73;21714;-76
2021/01/31 06:28:14;;;;;;;26.30;15.75;;;-2.80;99.90;;;;;;1940780;73;21091;-77
2021/01/31 06:31:10;;;;;;;29.10;17.50;;;-2.70;99.90;;;;;;1930712;73;21083;-77
2021/01/31 06:33:40;;;;;;;30.05;17.90;;;-2.70;99.90;;;;;;1936596;73;21228;-77
2021/01/31 06:36:29;;;;;;;29.37;16.90;;;-2.80;99.90;;;;;;1931250;73;21180;-77
2021/01/31 06:39:28;;;;;;;28.05;16.50;;;-2.70;99.90;;;;;;1928011;73;21665;-77
2021/01/31 06:42:07;;;;;;;29.05;16.85;;;-2.70;99.90;;;;;;1935717;73;21086;-77
2021/01/31 06:45:13;;;;;;;31.37;17.90;;;-2.80;99.90;;;;;;1932104;73;21087;-77
2021/01/31 06:48:03;;;;;;;26.27;16.32;;;-2.80;99.90;;;;;;1933570;72;21667;-76
2021/01/31 06:50:42;;;;;;;29.98;16.75;;;-2.90;99.90;;;;;;1935874;73;21389;-76
2021/01/31 06:53:30;;;;;;;28.17;16.45;;;-2.90;99.90;;;;;;1813474;77;21119;-76
2021/01/31 06:56:27;;;;;;;28.70;16.75;;;-2.80;99.90;;;;;;1938822;72;21143;-76
2021/01/31 06:59:09;;;;;;;26.20;16.40;;;-2.80;99.90;;;;;;1931156;73;21130;-77
2021/01/31 07:01:58;;;;;;;28.42;17.98;;;-2.90;99.90;;;;;;1933314;73;21165;-76
2021/01/31 07:04:34;;;;;;;29.10;17.10;;;-3.00;99.90;;;;;;1917175;73;21133;-76
2021/01/31 07:07:10;;;;;;;30.50;18.20;;;-3.00;99.90;;;;;;1931828;73;21245;-76
2021/01/31 07:09:44;;;;;;;30.15;17.40;;;-3.00;99.90;;;;;;1936350;73;21557;-76
2021/01/31 07:12:14;;;;;;;31.45;17.62;;;-3.10;99.90;;;;;;1936796;72;21115;-80
2021/01/31 07:15:00;;;;;;;29.82;17.65;;;-3.30;99.90;;;;;;1939320;73;21076;-77
2021/01/31 07:17:45;;;;;;;31.33;17.80;;;-3.30;99.90;;;;;;1933793;72;21209;-77
2021/01/31 07:20:22;;;;;;;30.27;17.00;;;-3.00;99.90;;;;;;1935439;72;21122;-78
2021/01/31 07:22:53;;;;;;;28.30;16.60;;;-2.90;99.90;;;;;;1934213;73;21545;-77
2021/01/31 07:25:32;;;;;;;27.93;17.40;;;-3.10;99.90;;;;;;1934562;72;21142;-77
2021/01/31 07:28:08;;;;;;;31.42;18.50;;;-3.00;99.90;;;;;;1934069;73;21115;-78
2021/01/31 07:30:47;;;;;;;30.35;17.42;;;-2.90;99.90;;;;;;1935493;73;21541;-77
2021/01/31 07:33:27;;;;;;;30.25;17.42;;;-2.80;99.90;;;;;;1937098;72;21196;-79
2021/01/31 07:36:00;;;;;;;29.82;17.95;;;-2.80;99.90;;;;;;1935162;72;21135;-79
2021/01/31 07:38:37;;;;;;;30.77;18.00;;;-3.00;99.90;;;;;;1933001;73;21240;-79
2021/01/31 07:41:05;;;;;;;31.65;18.32;;;-2.90;99.90;;;;;;1931391;73;21580;-77
2021/01/31 07:43:35;;;;;;;30.10;19.32;;;-2.80;99.90;;;;;;1934683;72;21068;-78
2021/01/31 07:46:06;;;;;;;32.85;18.92;;;-2.70;99.90;;;;;;1935876;72;21603;-76
2021/01/31 07:48:37;;;;;;;32.08;19.05;;;-2.60;99.90;;;;;;1933688;73;21140;-76
2021/01/31 07:51:06;;;;;;;33.85;19.55;;;-2.60;99.90;;;;;;1934154;72;21726;-77
2021/01/31 07:53:37;;;;;;;33.10;20.40;;;-2.60;99.90;;;;;;1936972;73;21272;-77
2021/01/31 07:56:24;;;;;;;31.70;17.98;;;-2.60;99.90;;;;;;1935470;72;21608;-78
2021/01/31 07:58:53;;;;;;;31.02;18.90;;;-2.80;99.90;;;;;;1939154;72;21127;-78
2021/01/31 08:01:44;;;;;;;32.33;19.40;;;-3.00;99.90;;;;;;1934480;72;21445;-79
2021/01/31 08:04:21;;;;;;;32.13;18.45;;;-2.90;99.90;;;;;;1941704;72;21189;-78
2021/01/31 08:06:51;;;;;;;30.10;17.60;;;-2.80;99.90;;;;;;1936903;72;21000;-78
2021/01/31 08:09:30;;;;;;;31.07;18.90;;;-2.70;99.90;;;;;;1929945;72;21095;-79
2021/01/31 08:12:09;;;;;;;32.25;19.20;;;-2.60;99.90;;;;;;1935489;73;21095;-79
2021/01/31 08:15:12;;;;;;;31.40;19.57;;;-2.60;99.90;;;;;;1932080;73;21177;-79
2021/01/31 08:17:59;;;;;;;30.05;18.48;;;-2.60;99.90;;;;;;1936678;73;21187;-78
2021/01/31 08:20:32;;;;;;;30.12;18.70;;;-2.70;99.90;;;;;;1929136;73;21091;-80
2021/01/31 08:23:02;;;;;;;28.57;18.92;;;-2.60;99.90;;;;;;1937109;73;21157;-78
2021/01/31 08:25:32;;;;;;;30.88;18.92;;;-2.50;99.90;;;;;;1936271;73;21196;-78
2021/01/31 08:28:06;;;;;;;29.90;18.45;;;-2.50;99.90;;;;;;1928753;73;21827;-81
2021/01/31 08:30:39;;;;;;;26.65;17.15;;;-2.30;99.90;;;;;;1934321;73;21622;-79
2021/01/31 08:33:10;;;;;;;28.50;18.82;;;-2.30;99.90;;;;;;1927948;73;21100;-79
2021/01/31 08:35:43;;;;;;;31.12;18.85;;;-2.10;99.90;;;;;;1932874;73;21110;-79
2021/01/31 08:38:34;;;;;;;33.75;18.65;;;-2.10;99.90;;;;;;1931173;73;21635;-79
2021/01/31 08:41:05;;;;;;;31.45;19.23;;;-2.00;99.90;;;;;;1938541;73;21127;-81
2021/01/31 08:43:36;;;;;;;33.02;19.73;;;-1.90;99.90;;;;;;1938118;73;21091;-82
2021/01/31 08:46:21;;;;;;;35.70;20.43;;;-1.70;99.90;;;;;;1934775;72;21157;-80
2021/01/31 08:49:03;;;;;;;31.23;18.92;;;-1.50;99.90;;;;;;1942164;73;21219;-79
2021/01/31 08:51:36;;;;;;;32.42;19.23;;;-1.60;99.90;;;;;;1916481;73;21130;-78
2021/01/31 08:54:07;;;;;;;32.35;19.15;;;-1.90;99.90;;;;;;1932022;73;21142;-80
2021/01/31 08:56:45;;;;;;;30.45;19.67;;;-1.90;99.90;;;;;;1934664;73;21067;-79
2021/01/31 08:59:16;;;;;;;30.77;19.62;;;-1.60;99.90;;;;;;1938232;73;21107;-79
2021/01/31 09:01:46;;;;;;;35.80;20.45;;;-1.30;99.90;;;;;;1932907;73;21594;-79
2021/01/31 09:04:16;;;;;;;36.10;21.42;;;-1.20;99.90;;;;;;1931835;73;21730;-80
2021/01/31 09:06:46;;;;;;;34.38;21.05;;;-1.10;99.90;;;;;;1940206;73;21204;-79
2021/01/31 09:09:34;;;;;;;34.27;21.68;;;-1.00;99.90;;;;;;1937211;73;21260;-81
2021/01/31 09:12:05;;;;;;;32.40;20.43;;;-0.90;99.90;;;;;;1934841;73;21109;-80
2021/01/31 09:14:36;;;;;;;36.85;21.25;;;-0.80;99.90;;;;;;1933760;73;21071;-79
2021/01/31 09:17:24;;;;;;;40.43;22.87;;;-0.60;99.90;;;;;;1932613;73;21127;-79
2021/01/31 09:19:55;;;;;;;35.33;22.45;;;-0.50;99.90;;;;;;1934426;73;21079;-80
2021/01/31 09:22:24;;;;;;;35.63;22.98;;;-0.40;99.90;;;;;;1901790;73;21114;-79
2021/01/31 09:24:54;;;;;;;37.42;23.40;;;-0.50;99.90;;;;;;1931976;73;21024;-79
2021/01/31 09:27:24;;;;;;;36.85;23.10;;;-0.40;99.90;;;;;;1935725;73;21464;-79
2021/01/31 09:29:58;;;;;;;37.88;23.73;;;-0.30;99.90;;;;;;1936359;72;21153;-79
2021/01/31 09:32:40;;;;;;;42.95;25.23;;;-0.10;99.90;;;;;;1940324;73;21107;-79
2021/01/31 09:35:10;;;;;;;41.45;24.98;;;0.00;99.90;;;;;;1939297;73;21148;-79
2021/01/31 09:37:38;;;;;;;41.02;24.47;;;0.10;99.90;;;;;;1939799;70;21169;-78
2021/01/31 09:40:08;;;;;;;39.85;25.50;;;0.00;99.90;;;;;;1938803;72;21051;-82
2021/01/31 09:42:38;;;;;;;39.55;25.08;;;0.20;99.90;;;;;;1934046;72;21200;-80
2021/01/31 09:45:25;;;;;;;40.43;24.82;;;0.40;99.90;;;;;;1939174;72;21213;-79
2021/01/31 09:47:53;;;;;;;38.38;24.12;;;0.50;99.90;;;;;;1939542;73;21189;-80
2021/01/31 09:50:21;;;;;;;38.13;23.92;;;0.60;99.90;;;;;;1939598;73;21679;-79
2021/01/31 09:52:50;;;;;;;37.80;24.87;;;0.70;99.90;;;;;;1934291;72;21087;-78
2021/01/31 09:55:29;;;;;;;37.50;23.70;;;0.70;99.90;;;;;;1935545;73;21044;-81
2021/01/31 09:57:58;;;;;;;40.98;25.60;;;0.70;99.90;;;;;;1931549;73;21122;-78
2021/01/31 10:00:29;;;;;;;36.28;24.47;;;0.80;99.90;;;;;;1927735;73;21169;-78
2021/01/31 10:03:08;;;;;;;36.08;24.23;;;0.80;99.90;;;;;;1929073;73;21098;-78
2021/01/31 10:05:36;;;;;;;36.70;23.98;;;1.00;99.90;;;;;;1932565;73;21083;-78
2021/01/31 10:08:10;;;;;;;36.58;23.60;;;1.10;99.90;;;;;;1933016;73;21262;-78
2021/01/31 10:10:40;;;;;;;36.30;24.52;;;1.30;99.90;;;;;;1935313;73;21099;-78
2021/01/31 10:13:17;;;;;;;38.80;26.12;;;1.40;99.90;;;;;;1932975;73;21529;-78
2021/01/31 10:15:47;;;;;;;37.15;25.27;;;1.60;99.90;;;;;;1919962;72;21438;-82
2021/01/31 10:18:18;;;;;;;36.15;23.80;;;1.70;99.90;;;;;;1906970;73;22645;-78
2021/01/31 10:20:45;;;;;;;39.00;25.77;;;1.50;99.90;;;;;;1932871;73;21414;-78
2021/01/31 10:23:16;;;;;;;39.27;26.68;;;1.60;99.90;;;;;;1931317;73;21087;-78
2021/01/31 10:25:46;;;;;;;39.63;26.33;;;1.90;99.90;;;;;;1934917;73;21338;-78
2021/01/31 10:28:14;;;;;;;39.08;25.68;;;1.90;99.90;;;;;;1934467;73;21143;-76
2021/01/31 10:30:48;;;;;;;38.95;25.82;;;2.00;99.90;;;;;;1933440;73;21153;-78
2021/01/31 10:33:41;;;;;;;34.85;24.77;;;2.10;99.90;;;;;;1936291;72;21553;-79
2021/01/31 10:36:32;;;;;;;36.63;24.35;;;2.20;99.90;;;;;;1934448;73;21095;-78
2021/01/31 10:39:03;;;;;;;37.28;25.37;;;2.20;99.90;;;;;;1935405;73;21196;-77
2021/01/31 10:41:31;;;;;;;35.80;24.18;;;2.20;99.90;;;;;;1936400;73;21084;-78
2021/01/31 10:44:04;;;;;;;38.25;25.27;;;2.20;99.90;;;;;;1938866;73;21130;-78
2021/01/31 10:46:34;;;;;;;35.00;24.40;;;2.50;99.90;;;;;;1937387;73;21156;-78
2021/01/31 10:49:01;;;;;;;37.53;24.92;;;2.50;99.90;;;;;;1935644;73;21562;-84
2021/01/31 10:51:34;;;;;;;35.92;24.45;;;2.80;99.90;;;;;;1935685;73;21139;-82
2021/01/31 10:54:04;;;;;;;38.42;25.08;;;2.90;99.90;;;;;;1938665;73;21167;-83
2021/01/31 10:56:32;;;;;;;33.67;23.90;;;3.10;99.90;;;;;;1936423;72;21162;-79
2021/01/31 10:58:59;;;;;;;37.23;24.85;;;3.00;99.90;;;;;;1940334;73;21240;-80
2021/01/31 11:01:27;;;;;;;36.70;24.60;;;3.20;99.90;;;;;;1942785;73;21414;-84
2021/01/31 11:03:55;;;;;;;36.05;24.80;;;3.40;99.90;;;;;;1939023;73;21563;-79
2021/01/31 11:06:22;;;;;;;34.23;23.07;;;3.50;99.90;;;;;;1938141;73;21196;-79
2021/01/31 11:08:51;;;;;;;31.55;23.02;;;3.60;99.90;;;;;;1942979;71;21766;-79
2021/01/31 11:11:20;;;;;;;34.38;23.98;;;3.80;99.90;;;;;;1938683;72;21122;-78
2021/01/31 11:13:48;;;;;;;30.25;21.80;;;3.80;99.90;;;;;;1941639;72;21217;-81
2021/01/31 11:16:17;;;;;;;35.50;23.52;;;3.70;99.90;;;;;;1937297;72;21106;-77
2021/01/31 11:18:46;;;;;;;34.40;22.85;;;3.80;99.90;;;;;;1937096;73;21153;-84
2021/01/31 11:21:17;;;;;;;34.20;23.55;;;4.20;99.90;;;;;;1933074;73;21585;-81
2021/01/31 11:23:44;;;;;;;29.15;21.37;;;4.40;99.90;;;;;;1935557;73;21204;-83
2021/01/31 11:26:12;;;;;;;29.63;21.42;;;4.40;99.90;;;;;;1938024;73;21169;-84
2021/01/31 11:28:39;;;;;;;30.23;21.90;;;4.60;99.90;;;;;;1936449;73;21150;-84
2021/01/31 11:31:07;;;;;;;32.17;23.10;;;4.80;99.90;;;;;;1929064;73;21067;-83
2021/01/31 11:33:34;;;;;;;32.05;23.25;;;4.70;99.90;;;;;;1935678;73;21095;-82
2021/01/31 11:36:02;;;;;;;33.02;23.30;;;4.80;99.90;;;;;;1939010;73;21595;-80
2021/01/31 11:38:30;;;;;;;31.07;22.52;;;5.00;99.90;;;;;;1936786;73;21224;-80
2021/01/31 11:40:57;;;;;;;28.07;20.68;;;5.30;99.90;;;;;;1939910;72;21067;-80
2021/01/31 11:43:25;;;;;;;29.75;21.60;;;5.30;99.90;;;;;;1935558;73;21048;-81
2021/01/31 11:45:52;;;;;;;29.00;20.92;;;5.60;99.90;;;;;;1932718;72;21126;-81
2021/01/31 11:48:20;;;;;;;27.82;21.48;;;5.90;99.90;;;;;;1933317;73;21834;-81
2021/01/31 11:50:48;;;;;;;28.00;20.17;;;6.30;99.90;;;;;;1938900;73;21219;-81
2021/01/31 11:53:16;;;;;;;21.73;17.27;;;6.80;99.90;;;;;;1924198;72;21550;-78
2021/01/31 11:55:43;;;;;;;24.72;18.02;;;7.40;99.90;;;;;;1935922;73;21132;-81
2021/01/31 11:58:17;;;;;;;22.22;17.65;;;7.90;99.90;;;;;;1935479;73;21705;-83
2021/01/31 12:00:44;;;;;;;24.75;17.73;;;8.30;99.70;;;;;;1910017;73;21101;-81
2021/01/31 12:03:12;;;;;;;23.77;17.85;;;8.00;99.90;;;;;;1935292;72;21184;-83
2021/01/31 12:05:40;;;;;;;24.05;17.45;;;8.50;99.00;;;;;;1936822;72;21055;-83
2021/01/31 12:08:08;;;;;;;22.20;16.82;;;9.30;97.20;;;;;;1935908;72;21143;-83
2021/01/31 12:10:35;;;;;;;21.10;16.62;;;9.70;95.40;;;;;;1934669;72;21095;-79
2021/01/31 12:13:03;;;;;;;21.55;16.05;;;9.90;94.90;;;;;;1936604;72;21076;-83
2021/01/31 12:15:31;;;;;;;21.80;17.25;;;10.00;94.10;;;;;;1940398;72;21730;-86
2021/01/31 12:17:58;;;;;;;20.57;17.37;;;9.90;94.00;;;;;;1937301;73;21397;-79
2021/01/31 12:20:26;;;;;;;23.57;16.60;;;9.80;94.40;;;;;;1935393;73;21160;-80
2021/01/31 12:22:53;;;;;;;22.87;17.62;;;9.70;93.50;;;;;;1934025;73;21537;-81
2021/01/31 12:25:21;;;;;;;25.32;18.35;;;9.80;93.40;;;;;;1940164;72;21568;-84
2021/01/31 12:27:50;;;;;;;22.77;18.07;;;10.00;93.50;;;;;;1934886;73;21600;-77
2021/01/31 12:30:23;;;;;;;23.35;17.73;;;10.60;92.40;;;;;;1937818;73;21017;-78
2021/01/31 12:32:50;;;;;;;23.00;18.12;;;11.20;91.50;;;;;;1936549;73;21095;-76
2021/01/31 12:35:18;;;;;;;23.57;17.48;;;11.90;90.50;;;;;;1937439;73;21013;-76
2021/01/31 12:37:45;;;;;;;20.17;16.73;;;12.60;88.50;;;;;;1934657;73;21212;-78
2021/01/31 12:40:15;;;;;;;20.80;16.23;;;13.30;85.90;;;;;;1938150;73;21559;-81
2021/01/31 12:42:44;;;;;;;18.40;15.58;;;14.00;79.80;;;;;;1937127;73;21605;-78
2021/01/31 12:45:12;;;;;;;18.62;14.10;;;14.00;77.40;;;;;;1937659;73;21079;-77
2021/01/31 12:47:39;;;;;;;18.65;15.55;;;13.90;75.10;;;;;;1936275;72;21510;-77
2021/01/31 12:50:08;;;;;;;17.40;14.93;;;13.70;74.80;;;;;;1937883;73;21063;-78
2021/01/31 12:52:37;;;;;;;16.35;13.95;;;13.20;75.80;;;;;;1931956;73;21111;-77
2021/01/31 12:55:06;;;;;;;14.55;12.50;;;12.60;77.60;;;;;;1932951;73;21118;-77
2021/01/31 12:57:33;;;;;;;15.30;12.00;;;12.40;77.30;;;;;;1933439;73;21143;-76